Time;durP1;ratioP1;P1;durP2;ratioP2;P2;SDS_P1;SDS_P2;PMS_P1;PMS_P2;Temp;Humidity;BMP_temperature;BMP_pressure;BME280_temperature;BME280_humidity;BME280_pressure;Samples;Min_cycle;Max_cycle;Signal;HPM_P1;HPM_P2
2024/01/26 00:02:05;;;;;;;71.63;33.63;;;8.40;99.90;;;;;;4915804;29;20051;-84
2024/01/26 00:04:31;;;;;;;67.75;32.63;;;8.50;99.90;;;;;;4920574;29;20440;-84
2024/01/26 00:06:56;;;;;;;70.80;33.15;;;8.50;99.90;;;;;;4903885;29;20055;-84
2024/01/26 00:09:22;;;;;;;71.85;31.67;;;8.40;99.90;;;;;;4905798;29;20104;-84
2024/01/26 00:11:49;;;;;;;70.03;34.00;;;8.50;99.90;;;;;;4894210;29;20040;-83
2024/01/26 00:14:14;;;;;;;64.70;32.22;;;8.50;99.90;;;;;;4907158;29;20056;-84
2024/01/26 00:16:40;;;;;;;67.68;32.00;;;8.60;99.90;;;;;;4919834;29;20095;-84
2024/01/26 00:19:08;;;;;;;70.95;33.22;;;8.60;99.90;;;;;;4924768;29;20046;-84
2024/01/26 00:21:35;;;;;;;70.15;33.08;;;8.60;99.90;;;;;;4898826;29;20047;-83
2024/01/26 00:24:02;;;;;;;61.17;31.13;;;8.50;99.90;;;;;;4928421;29;20035;-82
2024/01/26 00:26:30;;;;;;;68.85;33.00;;;8.60;99.90;;;;;;4907567;29;20044;-84
2024/01/26 00:28:58;;;;;;;69.28;33.75;;;8.60;99.90;;;;;;4921884;29;20051;-85
2024/01/26 00:31:24;;;;;;;71.40;33.17;;;8.70;99.90;;;;;;4921732;29;20044;-86
2024/01/26 00:33:52;;;;;;;69.32;33.28;;;8.70;99.90;;;;;;4902466;29;20043;-85
2024/01/26 00:36:17;;;;;;;75.93;34.85;;;8.70;99.90;;;;;;4906921;29;20064;-85
2024/01/26 00:38:43;;;;;;;74.25;34.25;;;8.70;99.90;;;;;;4882748;29;20046;-85
2024/01/26 00:41:10;;;;;;;70.00;33.47;;;8.70;99.90;;;;;;4916735;29;20056;-85
2024/01/26 00:43:36;;;;;;;67.78;33.33;;;8.70;99.90;;;;;;4905030;29;20064;-84
2024/01/26 00:46:03;;;;;;;68.47;33.92;;;8.80;99.90;;;;;;4900026;29;20052;-84
2024/01/26 00:48:29;;;;;;;70.38;34.10;;;8.80;99.90;;;;;;4899829;29;20218;-84
2024/01/26 00:50:55;;;;;;;73.60;34.22;;;8.90;99.90;;;;;;4899265;29;20210;-84
2024/01/26 00:53:21;;;;;;;65.63;33.13;;;8.70;99.90;;;;;;4912951;29;20067;-85
2024/01/26 00:55:47;;;;;;;76.70;34.63;;;8.80;99.90;;;;;;4919557;29;20040;-85
2024/01/26 00:58:12;;;;;;;66.40;33.47;;;8.80;99.90;;;;;;4901245;29;20035;-84
2024/01/26 01:00:41;;;;;;;65.28;32.47;;;8.70;99.90;;;;;;4900488;29;20151;-84
2024/01/26 01:03:07;;;;;;;66.63;31.98;;;8.80;99.90;;;;;;4905504;29;20135;-85
2024/01/26 01:05:36;;;;;;;67.82;33.00;;;8.80;99.90;;;;;;4917459;29;20068;-84
2024/01/26 01:08:01;;;;;;;65.25;32.95;;;8.90;99.90;;;;;;4915686;29;20044;-84
2024/01/26 01:10:27;;;;;;;61.67;32.42;;;8.80;99.90;;;;;;4923218;29;20452;-84
2024/01/26 01:12:53;;;;;;;60.30;32.67;;;8.80;99.90;;;;;;4916533;29;20040;-84
2024/01/26 01:15:18;;;;;;;60.55;32.72;;;8.80;99.90;;;;;;4917773;29;20472;-84
2024/01/26 01:17:46;;;;;;;62.53;32.45;;;8.90;99.90;;;;;;4902044;29;20044;-84
2024/01/26 01:20:13;;;;;;;62.03;31.77;;;8.80;99.90;;;;;;4917574;29;20406;-84
2024/01/26 01:22:41;;;;;;;57.22;31.38;;;8.80;99.90;;;;;;4918985;29;20119;-84
2024/01/26 01:25:08;;;;;;;61.15;32.45;;;8.90;99.90;;;;;;4916479;29;20087;-85
2024/01/26 01:27:36;;;;;;;64.17;32.40;;;8.90;99.90;;;;;;4902049;29;20100;-85
2024/01/26 01:30:10;;;;;;;69.45;33.83;;;8.80;99.90;;;;;;4904583;29;20511;-84
2024/01/26 01:32:36;;;;;;;64.20;32.38;;;8.80;99.90;;;;;;4923060;29;20082;-84
2024/01/26 01:35:02;;;;;;;53.88;30.35;;;8.90;99.90;;;;;;4916572;29;20052;-84
2024/01/26 01:37:28;;;;;;;60.60;32.28;;;8.80;99.90;;;;;;4922547;29;20047;-84
2024/01/26 01:39:53;;;;;;;58.40;32.47;;;8.90;99.90;;;;;;4904110;29;20040;-84
2024/01/26 01:42:22;;;;;;;61.88;33.13;;;8.80;99.90;;;;;;4926010;29;20059;-84
2024/01/26 01:44:47;;;;;;;56.38;30.85;;;9.00;99.90;;;;;;4912615;29;20040;-84
2024/01/26 01:47:14;;;;;;;66.78;32.33;;;8.90;99.90;;;;;;4903995;29;20174;-85
2024/01/26 01:49:41;;;;;;;56.28;32.08;;;9.00;99.90;;;;;;4904868;29;20070;-84
2024/01/26 01:52:15;;;;;;;56.57;32.17;;;8.90;99.90;;;;;;4912128;29;20119;-83
2024/01/26 01:54:41;;;;;;;62.17;32.58;;;9.00;99.90;;;;;;4902100;29;20344;-84
2024/01/26 01:57:11;;;;;;;60.15;32.58;;;9.00;99.90;;;;;;4923860;29;20040;-84
2024/01/26 01:59:37;;;;;;;62.15;32.60;;;8.90;99.90;;;;;;4904231;29;20064;-83
2024/01/26 02:02:04;;;;;;;61.63;33.55;;;9.10;99.90;;;;;;4918415;29;20048;-82
2024/01/26 02:04:30;;;;;;;64.30;32.95;;;9.00;99.90;;;;;;4916783;29;20040;-82
2024/01/26 02:06:57;;;;;;;61.38;33.13;;;9.00;99.90;;;;;;4904298;29;20103;-83
2024/01/26 02:09:23;;;;;;;52.27;32.80;;;9.00;99.90;;;;;;4887874;29;20091;-82
2024/01/26 02:11:48;;;;;;;62.72;33.50;;;9.00;99.90;;;;;;4901185;29;20044;-82
2024/01/26 02:14:14;;;;;;;57.63;32.90;;;9.10;99.90;;;;;;4917257;29;20072;-82
2024/01/26 02:16:40;;;;;;;60.28;33.42;;;9.10;99.90;;;;;;4900409;29;20051;-82
2024/01/26 02:19:05;;;;;;;60.47;33.47;;;9.20;99.90;;;;;;4916056;29;20067;-82
2024/01/26 02:21:31;;;;;;;55.67;33.17;;;9.10;99.90;;;;;;4918527;29;20079;-81
2024/01/26 02:23:56;;;;;;;56.03;31.33;;;9.10;99.90;;;;;;4914957;29;20118;-82
2024/01/26 02:26:22;;;;;;;54.58;31.75;;;9.10;99.90;;;;;;4885647;29;20055;-82
2024/01/26 02:28:48;;;;;;;56.03;31.38;;;9.10;99.90;;;;;;4916257;29;20044;-82
2024/01/26 02:31:13;;;;;;;52.97;31.83;;;9.00;99.90;;;;;;4917685;29;20051;-82
2024/01/26 02:33:39;;;;;;;48.10;29.42;;;9.10;99.90;;;;;;4920375;29;20043;-82
2024/01/26 02:36:06;;;;;;;52.70;30.13;;;9.20;99.90;;;;;;4884273;29;20059;-82
2024/01/26 02:38:31;;;;;;;48.45;30.33;;;9.20;99.90;;;;;;4900394;29;20056;-81
2024/01/26 02:41:00;;;;;;;47.50;28.90;;;9.20;99.90;;;;;;4903264;29;20060;-81
2024/01/26 02:43:26;;;;;;;45.22;28.83;;;9.20;99.90;;;;;;4886607;29;20123;-82
2024/01/26 02:45:51;;;;;;;48.05;29.65;;;9.10;99.90;;;;;;4900224;29;20124;-82
2024/01/26 02:48:17;;;;;;;45.78;28.77;;;9.10;99.90;;;;;;4884164;29;20044;-82
2024/01/26 02:50:42;;;;;;;41.83;28.30;;;9.20;99.90;;;;;;4922887;29;20119;-81
2024/01/26 02:53:08;;;;;;;43.22;27.48;;;9.20;99.90;;;;;;4916302;29;20036;-82
2024/01/26 02:55:34;;;;;;;47.17;28.83;;;9.10;99.90;;;;;;4901679;29;20054;-82
2024/01/26 02:57:59;;;;;;;46.63;28.45;;;9.20;99.90;;;;;;4924555;29;20044;-82
2024/01/26 03:00:25;;;;;;;43.20;29.23;;;9.20;99.90;;;;;;4920787;29;20052;-81
2024/01/26 03:02:51;;;;;;;43.90;29.05;;;9.20;99.90;;;;;;4908476;29;20071;-81
2024/01/26 03:05:16;;;;;;;45.90;29.63;;;9.20;99.90;;;;;;4908431;29;20056;-81
2024/01/26 03:07:42;;;;;;;43.85;28.48;;;9.20;99.90;;;;;;4911967;29;20044;-81
2024/01/26 03:10:08;;;;;;;38.67;26.85;;;9.30;99.90;;;;;;4922076;29;20507;-81
2024/01/26 03:12:33;;;;;;;41.03;28.23;;;9.30;99.90;;;;;;4923885;29;20126;-81
2024/01/26 03:15:00;;;;;;;41.85;28.00;;;9.30;99.90;;;;;;4904825;29;20048;-81
2024/01/26 03:17:26;;;;;;;42.15;29.13;;;9.30;99.90;;;;;;4920817;29;20071;-81
2024/01/26 03:19:52;;;;;;;40.15;28.02;;;9.30;99.90;;;;;;4924994;29;20490;-81
2024/01/26 03:22:17;;;;;;;41.05;27.55;;;9.30;99.90;;;;;;4918338;29;20079;-82
2024/01/26 03:24:46;;;;;;;42.08;28.55;;;9.20;99.90;;;;;;4917723;29;20118;-82
2024/01/26 03:27:11;;;;;;;41.72;28.35;;;9.30;99.90;;;;;;4913738;29;20047;-81
2024/01/26 03:29:37;;;;;;;42.78;29.30;;;9.30;99.90;;;;;;4915526;29;20036;-81
2024/01/26 03:32:03;;;;;;;42.08;28.35;;;9.40;99.90;;;;;;4919934;29;20399;-80
2024/01/26 03:34:29;;;;;;;39.10;28.55;;;9.30;99.90;;;;;;4917258;29;20507;-82
2024/01/26 03:36:54;;;;;;;39.08;29.65;;;9.40;99.90;;;;;;4901865;29;20054;-82
2024/01/26 03:39:20;;;;;;;41.05;28.73;;;9.40;99.90;;;;;;4911887;29;20127;-82
2024/01/26 03:41:45;;;;;;;37.80;27.33;;;9.30;99.90;;;;;;4917414;29;20063;-82
2024/01/26 03:44:11;;;;;;;39.67;27.75;;;9.40;99.90;;;;;;4885365;29;20490;-83
2024/01/26 03:46:42;;;;;;;38.13;26.90;;;9.30;99.90;;;;;;4911156;29;20107;-84
2024/01/26 03:49:09;;;;;;;42.85;27.90;;;9.30;99.90;;;;;;4905572;29;20048;-83
2024/01/26 03:51:36;;;;;;;35.53;26.03;;;9.40;99.90;;;;;;4916313;29;20131;-84
2024/01/26 03:54:01;;;;;;;37.05;26.40;;;9.40;99.90;;;;;;4902580;29;20056;-81
2024/01/26 03:56:27;;;;;;;32.88;24.10;;;9.40;99.90;;;;;;4914507;29;20051;-79
2024/01/26 03:58:53;;;;;;;39.97;26.48;;;9.30;99.90;;;;;;4913989;29;20045;-82
2024/01/26 04:01:20;;;;;;;35.72;25.60;;;9.40;99.90;;;;;;4902166;29;20455;-83
2024/01/26 04:03:45;;;;;;;37.70;25.65;;;9.40;99.90;;;;;;4921477;29;20048;-82
2024/01/26 04:06:11;;;;;;;35.92;26.60;;;9.40;99.90;;;;;;4900246;29;20052;-82
2024/01/26 04:08:37;;;;;;;32.55;24.30;;;9.40;99.90;;;;;;4903497;29;20048;-81
2024/01/26 04:11:03;;;;;;;35.10;25.00;;;9.40;99.90;;;;;;4915931;29;20447;-81
2024/01/26 04:13:28;;;;;;;35.40;24.40;;;9.50;99.90;;;;;;4918642;29;20095;-82
2024/01/26 04:15:54;;;;;;;34.08;25.52;;;9.40;99.90;;;;;;4915487;29;20040;-81
2024/01/26 04:18:19;;;;;;;32.75;25.08;;;9.40;99.90;;;;;;4916505;29;20040;-82
2024/01/26 04:20:48;;;;;;;34.88;25.67;;;9.50;99.90;;;;;;4914753;29;20414;-82
2024/01/26 04:23:14;;;;;;;32.05;24.92;;;9.50;99.90;;;;;;4918266;29;20201;-82
2024/01/26 04:25:39;;;;;;;31.10;23.38;;;9.50;99.90;;;;;;4915089;29;20124;-81
2024/01/26 04:28:05;;;;;;;35.72;24.75;;;9.50;99.90;;;;;;4916173;29;20518;-82
2024/01/26 04:30:31;;;;;;;36.92;26.55;;;9.50;99.90;;;;;;4916777;29;20163;-81
2024/01/26 04:32:59;;;;;;;39.50;26.90;;;9.50;99.90;;;;;;4915622;29;20428;-82
2024/01/26 04:35:25;;;;;;;37.50;27.40;;;9.50;99.90;;;;;;4917529;29;20415;-82
2024/01/26 04:37:51;;;;;;;37.40;26.45;;;9.60;99.90;;;;;;4921623;29;20055;-82
2024/01/26 04:40:18;;;;;;;40.60;28.20;;;9.50;99.90;;;;;;4917631;29;20135;-83
2024/01/26 04:42:43;;;;;;;41.88;27.77;;;9.60;99.90;;;;;;4901422;29;20052;-83
2024/01/26 04:45:09;;;;;;;38.95;27.08;;;9.60;99.90;;;;;;4916406;29;20834;-84
2024/01/26 04:47:35;;;;;;;38.78;27.45;;;9.60;99.90;;;;;;4888636;29;20123;-83
2024/01/26 04:50:01;;;;;;;37.65;27.25;;;9.60;99.90;;;;;;4917666;29;20134;-84
2024/01/26 04:52:26;;;;;;;36.30;26.52;;;9.70;99.90;;;;;;4918306;29;20052;-84
2024/01/26 04:54:52;;;;;;;36.17;27.05;;;9.70;99.90;;;;;;4916211;29;20499;-84
2024/01/26 04:57:18;;;;;;;31.83;25.83;;;9.60;99.90;;;;;;4916533;29;20062;-84
2024/01/26 04:59:44;;;;;;;34.08;25.85;;;9.70;99.90;;;;;;4898687;29;20419;-83
2024/01/26 05:02:09;;;;;;;34.22;25.73;;;9.60;99.90;;;;;;4901722;29;20460;-83
2024/01/26 05:04:35;;;;;;;37.15;26.10;;;9.70;99.90;;;;;;4915114;29;20055;-83
2024/01/26 05:07:01;;;;;;;35.25;25.58;;;9.70;99.90;;;;;;4880748;29;20044;-82
2024/01/26 05:09:26;;;;;;;32.05;25.48;;;9.70;99.90;;;;;;4902554;29;20044;-81
2024/01/26 05:11:52;;;;;;;32.95;24.40;;;9.70;99.90;;;;;;4914577;29;20040;-83
2024/01/26 05:14:18;;;;;;;29.42;23.38;;;9.70;99.90;;;;;;4914448;29;20049;-83
2024/01/26 05:16:43;;;;;;;29.60;23.00;;;9.70;99.90;;;;;;4900619;29;20037;-83
2024/01/26 05:19:09;;;;;;;27.55;21.05;;;9.80;99.90;;;;;;4918435;29;20044;-82
2024/01/26 05:21:35;;;;;;;30.95;22.48;;;9.80;99.90;;;;;;4888665;29;20044;-82
2024/01/26 05:24:01;;;;;;;26.58;21.88;;;9.80;99.90;;;;;;4901101;29;20495;-82
2024/01/26 05:26:30;;;;;;;27.85;21.73;;;9.70;99.90;;;;;;4915638;29;20052;-82
2024/01/26 05:28:55;;;;;;;28.73;21.10;;;9.80;99.90;;;;;;4919036;29;20083;-82
2024/01/26 05:31:21;;;;;;;30.52;20.83;;;10.60;99.90;;;;;;4914157;29;20112;-81
2024/01/26 05:33:47;;;;;;;26.48;20.30;;;9.80;99.90;;;;;;4885126;29;20048;-81
2024/01/26 05:36:13;;;;;;;26.67;20.10;;;9.90;99.90;;;;;;4907073;29;20127;-81
2024/01/26 05:38:38;;;;;;;25.15;20.48;;;9.90;99.90;;;;;;4912219;29;20044;-81
2024/01/26 05:41:04;;;;;;;27.00;20.73;;;10.10;99.90;;;;;;4919911;29;20044;-81
2024/01/26 05:43:30;;;;;;;25.63;19.75;;;10.10;99.90;;;;;;4919581;29;20044;-81
2024/01/26 05:45:55;;;;;;;23.92;19.17;;;10.30;99.90;;;;;;4917090;29;20403;-81
2024/01/26 05:48:21;;;;;;;24.90;19.35;;;10.30;99.90;;;;;;4887415;29;20076;-82
2024/01/26 05:50:47;;;;;;;27.88;19.05;;;10.00;99.90;;;;;;4911888;29;20521;-82
2024/01/26 05:53:13;;;;;;;24.48;18.30;;;9.90;99.90;;;;;;4902110;29;20072;-82
2024/01/26 05:55:38;;;;;;;23.88;18.08;;;10.00;99.90;;;;;;4923850;29;20524;-83
2024/01/26 05:58:05;;;;;;;25.92;18.17;;;10.00;99.90;;;;;;4917300;29;20052;-83
2024/01/26 06:00:30;;;;;;;20.05;17.02;;;9.90;99.90;;;;;;4914216;29;20052;-82
2024/01/26 06:02:59;;;;;;;23.95;16.77;;;10.00;99.90;;;;;;4922269;29;20439;-83
2024/01/26 06:05:25;;;;;;;21.05;16.90;;;10.50;99.90;;;;;;4869926;29;20052;-83
2024/01/26 06:07:50;;;;;;;22.73;16.83;;;10.10;99.90;;;;;;4917645;29;20526;-83
2024/01/26 06:10:16;;;;;;;23.90;16.40;;;10.60;99.90;;;;;;4907395;29;20062;-83
2024/01/26 06:12:44;;;;;;;18.75;15.13;;;10.30;99.90;;;;;;4921984;29;20075;-83
2024/01/26 06:15:10;;;;;;;19.88;15.32;;;10.30;99.90;;;;;;4920567;29;20043;-83
2024/01/26 06:17:35;;;;;;;20.23;15.50;;;10.30;99.90;;;;;;4917676;29;20118;-82
2024/01/26 06:20:04;;;;;;;17.83;14.80;;;10.20;99.90;;;;;;4922237;29;20138;-83
2024/01/26 06:22:30;;;;;;;16.17;14.43;;;10.20;99.90;;;;;;4922087;29;20506;-83
2024/01/26 06:24:56;;;;;;;19.50;14.65;;;10.20;99.90;;;;;;4905093;29;20047;-83
2024/01/26 06:27:22;;;;;;;20.52;14.70;;;10.30;99.90;;;;;;4906149;29;20083;-83
2024/01/26 06:29:47;;;;;;;17.75;13.40;;;10.40;99.90;;;;;;4921459;29;20040;-81
2024/01/26 06:32:13;;;;;;;21.67;15.27;;;10.50;99.90;;;;;;4900344;29;20067;-83
2024/01/26 06:34:40;;;;;;;15.70;13.98;;;10.20;99.90;;;;;;4897516;29;20079;-83
2024/01/26 06:37:06;;;;;;;15.43;13.70;;;10.30;99.90;;;;;;4898342;29;20135;-83
2024/01/26 06:39:34;;;;;;;20.02;14.23;;;10.40;99.90;;;;;;4918240;29;20407;-84
2024/01/26 06:42:00;;;;;;;16.27;13.70;;;10.40;99.90;;;;;;4899960;29;20040;-84
2024/01/26 06:44:25;;;;;;;17.45;14.60;;;10.50;99.90;;;;;;4902667;29;20541;-84
2024/01/26 06:46:57;;;;;;;19.23;14.40;;;10.30;99.90;;;;;;4920227;29;20040;-84
2024/01/26 06:49:23;;;;;;;16.10;13.45;;;10.30;99.90;;;;;;4918073;29;20062;-84
2024/01/26 06:51:48;;;;;;;17.05;13.15;;;10.20;99.90;;;;;;4899428;29;20048;-84
2024/01/26 06:54:14;;;;;;;17.17;13.13;;;10.70;99.90;;;;;;4899869;29;20044;-80
2024/01/26 06:56:39;;;;;;;16.58;13.63;;;10.20;99.90;;;;;;4920846;29;20040;-81
2024/01/26 06:59:05;;;;;;;17.15;13.50;;;10.20;99.90;;;;;;4918124;29;20036;-81
2024/01/26 07:01:31;;;;;;;15.82;13.57;;;10.60;99.90;;;;;;4919545;29;20180;-81
2024/01/26 07:03:56;;;;;;;15.00;13.02;;;10.20;99.90;;;;;;4915694;29;20047;-82
2024/01/26 07:06:22;;;;;;;18.35;13.55;;;10.20;99.90;;;;;;4919642;29;20071;-82
2024/01/26 07:08:47;;;;;;;15.38;13.20;;;10.30;99.90;;;;;;4908035;29;20542;-83
2024/01/26 07:11:14;;;;;;;18.90;14.68;;;;;;;;;;4912371;29;20040;-85
2024/01/26 07:13:40;;;;;;;16.20;13.93;;;;;;;;;;4918266;29;20139;-83
2024/01/26 07:16:06;;;;;;;18.67;13.25;;;;;;;;;;4883447;29;20048;-86
2024/01/26 07:18:33;;;;;;;15.18;13.55;;;;;;;;;;4906293;29;20051;-85
2024/01/26 07:20:59;;;;;;;17.25;13.80;;;10.40;99.90;;;;;;4901569;29;20052;-85
2024/01/26 07:23:24;;;;;;;20.08;14.32;;;10.10;99.90;;;;;;4888792;29;20120;-85
2024/01/26 07:25:50;;;;;;;15.38;13.52;;;10.20;99.90;;;;;;4885331;29;20040;-84
2024/01/26 07:28:16;;;;;;;15.43;13.82;;;10.30;99.90;;;;;;4916962;29;20063;-83
2024/01/26 07:30:41;;;;;;;15.07;13.48;;;10.30;99.90;;;;;;4915504;29;20036;-84
2024/01/26 07:33:07;;;;;;;14.98;13.32;;;;;;;;;;4912546;29;20119;-84
2024/01/26 07:35:33;;;;;;;16.17;13.27;;;10.20;99.90;;;;;;4896277;29;20052;-84
2024/01/26 07:37:59;;;;;;;15.68;12.80;;;;;;;;;;4899603;29;20118;-83
2024/01/26 07:40:25;;;;;;;15.07;13.00;;;;;;;;;;4894900;29;20142;-84
2024/01/26 07:42:51;;;;;;;16.13;12.93;;;10.20;99.90;;;;;;4899669;29;20201;-83
2024/01/26 07:45:17;;;;;;;15.50;13.07;;;10.30;99.90;;;;;;4911038;29;20047;-83
2024/01/26 07:47:42;;;;;;;13.95;12.43;;;10.30;99.90;;;;;;4915395;29;20032;-83
2024/01/26 07:50:08;;;;;;;15.23;12.25;;;10.40;99.90;;;;;;4899481;29;20371;-84
2024/01/26 07:52:34;;;;;;;13.95;12.27;;;10.60;99.90;;;;;;4910825;29;20432;-84
2024/01/26 07:54:59;;;;;;;13.27;11.88;;;10.30;99.90;;;;;;4898400;29;20080;-85
2024/01/26 07:57:26;;;;;;;14.50;12.73;;;10.20;99.90;;;;;;4885833;29;20052;-82
2024/01/26 07:59:52;;;;;;;12.77;11.52;;;10.40;99.90;;;;;;4915073;29;20055;-83
2024/01/26 08:02:17;;;;;;;13.80;11.77;;;10.40;99.90;;;;;;4915242;29;20044;-81
2024/01/26 08:04:43;;;;;;;14.35;11.35;;;10.20;99.90;;;;;;4922477;29;20054;-86
2024/01/26 08:07:14;;;;;;;14.55;11.50;;;10.50;99.90;;;;;;4910010;29;20064;-86
2024/01/26 08:09:40;;;;;;;15.68;11.20;;;10.10;99.90;;;;;;4914642;29;20529;-86
2024/01/26 08:12:05;;;;;;;12.40;11.20;;;10.10;99.90;;;;;;4898308;29;20150;-85
2024/01/26 08:14:31;;;;;;;14.25;11.55;;;10.20;99.90;;;;;;4885987;29;20192;-85
2024/01/26 08:16:57;;;;;;;12.82;11.50;;;10.20;99.90;;;;;;4912868;29;20082;-82
2024/01/26 08:19:22;;;;;;;13.15;10.95;;;10.10;99.90;;;;;;4909287;29;20082;-81
2024/01/26 08:21:48;;;;;;;11.05;9.88;;;10.10;99.90;;;;;;4923334;29;20040;-83
2024/01/26 08:24:13;;;;;;;12.80;10.45;;;10.20;99.90;;;;;;4922761;29;20054;-83
2024/01/26 08:26:39;;;;;;;11.77;10.00;;;10.40;99.90;;;;;;4911841;29;20036;-83
2024/01/26 08:29:05;;;;;;;11.38;10.18;;;10.30;99.90;;;;;;4923039;29;20048;-84
2024/01/26 08:31:31;;;;;;;11.15;9.93;;;10.20;99.90;;;;;;4917756;29;20132;-83
2024/01/26 08:33:56;;;;;;;10.68;9.10;;;9.90;99.90;;;;;;4904933;29;20131;-83
2024/01/26 08:36:22;;;;;;;10.48;8.82;;;10.20;99.90;;;;;;4906775;29;20047;-85
2024/01/26 08:38:49;;;;;;;9.88;8.35;;;10.40;99.90;;;;;;4899888;29;20044;-86
2024/01/26 08:41:16;;;;;;;9.02;8.10;;;10.50;99.90;;;;;;4898103;29;20048;-86
2024/01/26 08:43:44;;;;;;;8.38;7.47;;;9.80;99.90;;;;;;4888427;29;20045;-86
2024/01/26 08:46:10;;;;;;;9.70;7.63;;;10.40;99.90;;;;;;4888782;29;20059;-86
2024/01/26 08:48:39;;;;;;;8.63;7.07;;;10.30;99.90;;;;;;4902396;29;20477;-86
2024/01/26 08:51:05;;;;;;;7.63;6.80;;;10.30;99.90;;;;;;4896764;29;20040;-83
2024/01/26 08:53:30;;;;;;;8.80;7.25;;;10.40;99.90;;;;;;4923648;29;20079;-77
2024/01/26 08:55:56;;;;;;;8.80;7.22;;;10.40;99.90;;;;;;4919974;29;20395;-79
2024/01/26 08:58:22;;;;;;;9.05;7.70;;;10.50;99.90;;;;;;4924461;29;20135;-78
2024/01/26 09:00:48;;;;;;;8.52;7.63;;;10.50;99.90;;;;;;4917012;29;20083;-78
2024/01/26 09:03:14;;;;;;;9.27;7.60;;;10.40;99.90;;;;;;4915918;29;20732;-79
2024/01/26 09:05:42;;;;;;;9.02;8.07;;;10.40;99.90;;;;;;4898565;29;20052;-80
2024/01/26 09:08:07;;;;;;;9.52;8.13;;;10.40;99.90;;;;;;4917841;29;20041;-82
2024/01/26 09:10:33;;;;;;;10.32;8.63;;;10.40;99.90;;;;;;4887061;29;20090;-81
2024/01/26 09:12:59;;;;;;;10.82;9.27;;;10.40;99.90;;;;;;4923878;29;20056;-82
2024/01/26 09:15:25;;;;;;;10.68;8.88;;;10.50;99.90;;;;;;4926986;29;20044;-80
2024/01/26 09:17:50;;;;;;;12.98;9.70;;;10.60;99.90;;;;;;4925901;29;20051;-79
2024/01/26 09:20:16;;;;;;;10.75;9.63;;;10.50;99.90;;;;;;4908459;29;20043;-80
2024/01/26 09:22:41;;;;;;;10.85;9.75;;;10.50;99.90;;;;;;4926594;29;20051;-81
2024/01/26 09:25:08;;;;;;;11.77;9.38;;;10.60;99.90;;;;;;4922018;29;20055;-80
2024/01/26 09:27:33;;;;;;;15.43;10.07;;;10.60;99.90;;;;;;4917739;29;20040;-80
2024/01/26 09:30:01;;;;;;;11.65;9.68;;;10.70;99.90;;;;;;4901239;29;20048;-79
2024/01/26 09:32:27;;;;;;;10.80;9.70;;;10.90;99.90;;;;;;4918264;29;20154;-79
2024/01/26 09:34:53;;;;;;;11.82;9.35;;;10.80;99.90;;;;;;4923461;29;20461;-79
2024/01/26 09:37:20;;;;;;;10.68;9.55;;;10.80;99.90;;;;;;4917036;29;20055;-79
2024/01/26 09:39:46;;;;;;;14.40;9.18;;;10.70;99.90;;;;;;4917501;29;20059;-79
2024/01/26 09:42:11;;;;;;;10.32;8.98;;;10.80;99.90;;;;;;4918708;29;20048;-79
2024/01/26 09:44:38;;;;;;;10.93;9.57;;;10.70;99.90;;;;;;4904887;29;20403;-79
2024/01/26 09:47:08;;;;;;;13.60;9.43;;;10.80;99.90;;;;;;4900508;29;20048;-79
2024/01/26 09:49:35;;;;;;;2.15;1.23;;;10.80;99.90;;;;;;4887575;29;20076;-79
2024/01/26 09:52:01;;;;;;;2.70;0.90;;;;;;;;;;4919728;29;20059;-79
2024/01/26 09:54:28;;;;;;;2.53;0.60;;;9.60;99.90;;;;;;4881377;29;20051;-79
2024/01/26 09:56:56;;;;;;;1.77;0.60;;;9.40;99.90;;;;;;4901775;29;20169;-79
2024/01/26 09:59:23;;;;;;;1.13;0.52;;;9.30;99.90;;;;;;4899773;29;20044;-80
2024/01/26 10:01:50;;;;;;;1.52;0.45;;;9.30;99.90;;;;;;4918135;29;20112;-79
2024/01/26 10:04:16;;;;;;;3.20;0.60;;;9.30;99.90;;;;;;4917254;29;20044;-79
2024/01/26 10:06:41;;;;;;;2.20;0.35;;;9.30;99.90;;;;;;4920603;29;20277;-79
2024/01/26 10:09:09;;;;;;;2.53;0.63;;;9.30;99.90;;;;;;4918644;29;21928;-79
2024/01/26 10:11:35;;;;;;;1.60;0.73;;;9.30;99.90;;;;;;4898044;29;20047;-79
2024/01/26 10:14:01;;;;;;;3.60;0.50;;;9.10;99.90;;;;;;4919076;29;20047;-79
2024/01/26 10:16:27;;;;;;;2.83;0.73;;;9.10;99.90;;;;;;4897962;29;20059;-79
2024/01/26 10:18:52;;;;;;;2.55;0.60;;;9.00;99.90;;;;;;4903914;29;20079;-80
2024/01/26 10:21:18;;;;;;;2.95;0.55;;;9.50;99.90;;;;;;4906902;29;20075;-79
2024/01/26 10:23:44;;;;;;;2.28;0.90;;;8.90;99.90;;;;;;4918620;29;20094;-78
2024/01/26 10:26:10;;;;;;;3.28;0.90;;;9.00;99.90;;;;;;4916507;29;20534;-80
2024/01/26 10:28:36;;;;;;;3.67;0.88;;;8.90;99.90;;;;;;4918455;29;20510;-78
2024/01/26 10:31:02;;;;;;;4.20;0.90;;;8.90;99.90;;;;;;4900875;29;20048;-79
2024/01/26 10:33:31;;;;;;;6.63;1.08;;;8.90;99.90;;;;;;4917354;29;20068;-79
2024/01/26 10:36:01;;;;;;;6.05;1.02;;;8.80;99.90;;;;;;4901574;29;20099;-80
2024/01/26 10:38:31;;;;;;;7.50;1.80;;;8.90;99.90;;;;;;4916795;29;20048;-78
2024/01/26 10:41:04;;;;;;;7.97;1.50;;;8.90;99.90;;;;;;4917098;29;20064;-79
2024/01/26 10:43:31;;;;;;;5.70;1.33;;;8.90;99.90;;;;;;4882353;29;20493;-80
2024/01/26 10:45:58;;;;;;;10.57;2.67;;;8.90;99.90;;;;;;4903191;29;20048;-77
2024/01/26 10:48:27;;;;;;;10.98;2.03;;;8.90;99.90;;;;;;4903541;29;20062;-78
2024/01/26 10:50:54;;;;;;;11.95;1.77;;;8.90;99.90;;;;;;4879583;29;20575;-78
2024/01/26 10:53:21;;;;;;;11.30;2.40;;;8.90;99.90;;;;;;4890613;29;20079;-78
2024/01/26 10:55:48;;;;;;;10.13;1.70;;;9.00;99.90;;;;;;4917245;29;20127;-78
2024/01/26 10:58:14;;;;;;;13.02;2.50;;;9.10;99.90;;;;;;4901915;29;20048;-78
2024/01/26 11:00:41;;;;;;;10.57;2.30;;;9.10;99.90;;;;;;4916056;29;20471;-77
2024/01/26 11:03:08;;;;;;;11.02;2.00;;;9.10;99.90;;;;;;4899055;29;20055;-77
2024/01/26 11:05:34;;;;;;;13.60;2.80;;;9.00;99.90;;;;;;4892500;29;20060;-77
2024/01/26 11:08:04;;;;;;;12.98;2.80;;;9.10;99.90;;;;;;4913592;29;20052;-78
2024/01/26 11:10:30;;;;;;;16.70;2.72;;;9.00;99.90;;;;;;4920198;29;20482;-78
2024/01/26 11:13:03;;;;;;;14.40;2.40;;;9.00;99.90;;;;;;4896935;29;20044;-78
2024/01/26 11:15:30;;;;;;;14.32;2.45;;;9.00;99.90;;;;;;4879562;29;20037;-78
2024/01/26 11:17:57;;;;;;;15.25;2.53;;;8.90;99.90;;;;;;4923292;29;20044;-78
2024/01/26 11:20:30;;;;;;;18.05;3.42;;;9.00;99.90;;;;;;4916417;29;20036;-78
2024/01/26 11:23:06;;;;;;;12.30;2.90;;;9.00;99.90;;;;;;4914672;29;20321;-78
2024/01/26 11:25:35;;;;;;;19.40;3.00;;;9.00;99.90;;;;;;4912072;29;20059;-78
2024/01/26 11:28:03;;;;;;;15.27;2.97;;;9.00;99.90;;;;;;4923919;29;20058;-78
2024/01/26 11:30:29;;;;;;;13.18;2.30;;;9.00;99.90;;;;;;4923877;29;20048;-78
2024/01/26 11:32:55;;;;;;;14.05;2.88;;;9.10;99.90;;;;;;4910058;29;20035;-78
2024/01/26 11:35:21;;;;;;;15.57;2.28;;;8.90;99.90;;;;;;4904531;29;20043;-78
2024/01/26 11:37:49;;;;;;;12.98;2.60;;;;;;;;;;4915518;29;20044;-79
2024/01/26 11:40:14;;;;;;;17.80;2.77;;;8.80;99.90;;;;;;4917199;29;20084;-78
2024/01/26 11:42:43;;;;;;;18.20;3.42;;;8.80;99.90;;;;;;4915886;29;20131;-77
2024/01/26 11:45:12;;;;;;;14.90;2.80;;;8.70;99.90;;;;;;4916428;29;20176;-78
2024/01/26 11:47:42;;;;;;;17.98;3.15;;;8.70;99.90;;;;;;4881724;29;20518;-78
2024/01/26 11:50:09;;;;;;;15.43;3.17;;;8.70;99.90;;;;;;4915026;29;20043;-79
2024/01/26 11:52:35;;;;;;;17.17;3.22;;;8.70;99.90;;;;;;4913195;29;20195;-79
2024/01/26 11:55:08;;;;;;;12.77;3.10;;;8.60;99.90;;;;;;4900448;29;20048;-78
2024/01/26 11:57:33;;;;;;;9.60;2.72;;;8.60;99.90;;;;;;4914682;29;20052;-78
2024/01/26 11:59:59;;;;;;;11.57;2.80;;;8.60;99.90;;;;;;4916383;29;20051;-79
2024/01/26 12:02:26;;;;;;;15.90;3.05;;;8.60;99.90;;;;;;4918485;29;20095;-78
2024/01/26 12:04:51;;;;;;;14.50;3.33;;;8.60;99.90;;;;;;4898456;29;20047;-78
2024/01/26 12:07:17;;;;;;;15.98;2.65;;;8.60;99.90;;;;;;4884707;29;20052;-79
2024/01/26 12:09:44;;;;;;;16.17;3.25;;;8.60;99.90;;;;;;4901935;29;20055;-78
2024/01/26 12:12:10;;;;;;;15.57;3.08;;;8.60;99.90;;;;;;4913906;29;20072;-78
2024/01/26 12:14:37;;;;;;;19.38;3.30;;;8.60;99.90;;;;;;4882893;29;20044;-78
2024/01/26 12:17:02;;;;;;;11.45;3.05;;;8.50;99.90;;;;;;4916560;29;20579;-79
2024/01/26 12:19:28;;;;;;;16.67;3.33;;;8.50;99.90;;;;;;4883557;29;20048;-78
2024/01/26 12:21:54;;;;;;;12.32;2.75;;;8.50;99.90;;;;;;4880903;29;20040;-78
2024/01/26 12:24:22;;;;;;;15.18;3.42;;;8.50;99.90;;;;;;4913825;29;20460;-78
2024/01/26 12:26:47;;;;;;;12.35;3.00;;;8.40;99.90;;;;;;4882447;29;20112;-80
2024/01/26 12:29:13;;;;;;;13.00;2.72;;;8.40;99.90;;;;;;4914030;29;20551;-78
2024/01/26 12:31:38;;;;;;;14.35;2.60;;;8.40;99.90;;;;;;4913491;29;20563;-78
2024/01/26 12:34:14;;;;;;;13.98;3.25;;;8.40;99.90;;;;;;4922717;29;20066;-79
2024/01/26 12:36:40;;;;;;;19.30;3.85;;;;;;;;;;4903009;29;20053;-80